ITY96 LIMC-KJFK
Flight info
| Callsign | ITY96 |
|---|---|
| Flight time | N/A |
| Altitude | 40000 |
| Route | AOSTA DCT ORSUD DCT MOLUS DCT UNKIR DCT DJL DCT OKRIX DCT AMODO DCT COHPA UM729 RESMI UN491 LGL UN502 JSY DCT LIZAD DCT LULOX/M084F400 DCT GIPER DCT ELSOX DCT DINIM/M084F390 NATF MUSAK/N0485F430 N296B TUSKY DCT PLYMM PARCH3 |
| Aircraft | A359/H-SDE2E3GHIJ3J4J5LM1ORWXY/LB1D1 |
Departure
| Time | 2026-05-06 08:53 |
|---|---|
| Airport | Milan Malpensa International Airport (LIMC) |
Arrival
| Time | N/A |
|---|---|
| Airport | John F. Kennedy International Airport (KJFK) |
| Time | Latitude | Longitude | Altitude | Speed | Heading |
|---|---|---|---|---|---|
| 2026-05-06 08:14 | 45.62202 | 8.71650 | 734 ft | 0 kts | 171° |
| 2026-05-06 08:41 | 45.62208 | 8.71648 | 734 ft | 1 kts | 171° |
| 2026-05-06 08:42 | 45.62219 | 8.71646 | 734 ft | 3 kts | 171° |
| 2026-05-06 08:42 | 45.62237 | 8.71642 | 732 ft | 3 kts | 171° |
| 2026-05-06 08:42 | 45.62255 | 8.71638 | 734 ft | 3 kts | 171° |
| 2026-05-06 08:42 | 45.62272 | 8.71634 | 734 ft | 2 kts | 171° |
| 2026-05-06 08:43 | 45.62290 | 8.71628 | 733 ft | 3 kts | 142° |
| 2026-05-06 08:43 | 45.62302 | 8.71608 | 734 ft | 3 kts | 103° |
| 2026-05-06 08:43 | 45.62304 | 8.71599 | 733 ft | 0 kts | 88° |
| 2026-05-06 08:45 | 45.62309 | 8.71676 | 735 ft | 13 kts | 82° |
| 2026-05-06 08:45 | 45.62325 | 8.71810 | 734 ft | 14 kts | 78° |
| 2026-05-06 08:45 | 45.62296 | 8.71923 | 735 ft | 13 kts | 152° |
| 2026-05-06 08:45 | 45.62203 | 8.71960 | 735 ft | 14 kts | 165° |
| 2026-05-06 08:46 | 45.62097 | 8.71992 | 734 ft | 16 kts | 173° |
| 2026-05-06 08:46 | 45.61977 | 8.72018 | 730 ft | 19 kts | 170° |
| 2026-05-06 08:46 | 45.61840 | 8.72053 | 729 ft | 21 kts | 170° |
| 2026-05-06 08:46 | 45.61689 | 8.72097 | 725 ft | 23 kts | 168° |
| 2026-05-06 08:47 | 45.61525 | 8.72143 | 722 ft | 25 kts | 169° |
| 2026-05-06 08:47 | 45.61348 | 8.72192 | 719 ft | 27 kts | 169° |
| 2026-05-06 08:47 | 45.61155 | 8.72245 | 716 ft | 29 kts | 169° |
| 2026-05-06 08:47 | 45.60953 | 8.72301 | 711 ft | 30 kts | 168° |
| 2026-05-06 08:48 | 45.60744 | 8.72358 | 714 ft | 31 kts | 169° |
| 2026-05-06 08:48 | 45.60634 | 8.72561 | 712 ft | 29 kts | 98° |
| 2026-05-06 08:48 | 45.60613 | 8.72839 | 710 ft | 28 kts | 96° |
| 2026-05-06 08:48 | 45.60592 | 8.73114 | 713 ft | 28 kts | 94° |
| 2026-05-06 08:49 | 45.60640 | 8.73271 | 712 ft | 26 kts | 34° |
| 2026-05-06 08:49 | 45.60799 | 8.73371 | 715 ft | 25 kts | 22° |
| 2026-05-06 08:49 | 45.60961 | 8.73392 | 715 ft | 23 kts | 350° |
| 2026-05-06 08:49 | 45.61122 | 8.73347 | 711 ft | 24 kts | 348° |
| 2026-05-06 08:50 | 45.61287 | 8.73303 | 715 ft | 24 kts | 349° |
| 2026-05-06 08:50 | 45.61451 | 8.73260 | 717 ft | 24 kts | 348° |
| 2026-05-06 08:50 | 45.61602 | 8.73248 | 720 ft | 17 kts | 37° |
| 2026-05-06 08:50 | 45.61633 | 8.73394 | 719 ft | 16 kts | 89° |
| 2026-05-06 08:51 | 45.61592 | 8.73546 | 716 ft | 17 kts | 107° |
| 2026-05-06 08:51 | 45.61589 | 8.73571 | 716 ft | 0 kts | 95° |
| 2026-05-06 08:51 | 45.61590 | 8.73619 | 716 ft | 13 kts | 87° |
| 2026-05-06 08:52 | 45.61640 | 8.73723 | 715 ft | 13 kts | 15° |
| 2026-05-06 08:52 | 45.61689 | 8.73719 | 714 ft | 0 kts | 350° |
| 2026-05-06 08:52 | 45.61710 | 8.73713 | 717 ft | 22 kts | 350° |
| 2026-05-06 08:53 | 45.62099 | 8.73605 | 724 ft | 90 kts | 349° |
| 2026-05-06 08:53 | 45.62910 | 8.73384 | 734 ft | 146 kts | 348° |
| 2026-05-06 08:53 | 45.64029 | 8.73076 | 980 ft | 175 kts | 352° |
| 2026-05-06 08:53 | 45.65271 | 8.72717 | 1461 ft | 190 kts | 353° |
| 2026-05-06 08:54 | 45.66641 | 8.72624 | 2041 ft | 202 kts | 5° |
| 2026-05-06 08:54 | 45.68123 | 8.72645 | 2498 ft | 225 kts | 6° |
| 2026-05-06 08:54 | 45.69728 | 8.72380 | 3090 ft | 242 kts | 343° |
| 2026-05-06 08:54 | 45.71051 | 8.70918 | 3778 ft | 250 kts | 302° |
| 2026-05-06 08:55 | 45.71545 | 8.68589 | 4652 ft | 239 kts | 266° |
| 2026-05-06 08:55 | 45.71532 | 8.66222 | 5483 ft | 236 kts | 264° |
| 2026-05-06 08:55 | 45.71522 | 8.63867 | 6239 ft | 240 kts | 268° |
| 2026-05-06 08:55 | 45.71515 | 8.61471 | 6846 ft | 246 kts | 262° |
| 2026-05-06 08:56 | 45.71051 | 8.59135 | 7463 ft | 249 kts | 240° |
| 2026-05-06 08:56 | 45.70139 | 8.56921 | 7791 ft | 268 kts | 235° |
| 2026-05-06 08:56 | 45.69111 | 8.54630 | 8489 ft | 276 kts | 234° |
| 2026-05-06 08:56 | 45.68076 | 8.52333 | 9355 ft | 277 kts | 234° |
| 2026-05-06 08:57 | 45.67020 | 8.49997 | 10271 ft | 284 kts | 234° |
| 2026-05-06 08:57 | 45.65901 | 8.47556 | 10860 ft | 303 kts | 236° |
| 2026-05-06 08:57 | 45.64732 | 8.44976 | 11714 ft | 315 kts | 236° |
| 2026-05-06 08:57 | 45.63534 | 8.42262 | 12441 ft | 331 kts | 237° |
| 2026-05-06 08:58 | 45.62197 | 8.39567 | 13233 ft | 332 kts | 229° |
| 2026-05-06 08:58 | 45.60714 | 8.37015 | 14065 ft | 334 kts | 228° |
| 2026-05-06 08:58 | 45.59328 | 8.34345 | 14720 ft | 341 kts | 237° |
| 2026-05-06 08:58 | 45.58483 | 8.31130 | 15399 ft | 350 kts | 256° |
| 2026-05-06 08:59 | 45.58458 | 8.27644 | 16066 ft | 361 kts | 276° |
| 2026-05-06 08:59 | 45.59125 | 8.24140 | 16716 ft | 370 kts | 284° |
| 2026-05-06 08:59 | 45.59963 | 8.20645 | 17357 ft | 376 kts | 285° |
| 2026-05-06 08:59 | 45.60818 | 8.17092 | 18024 ft | 381 kts | 285° |
| 2026-05-06 09:00 | 45.61670 | 8.13494 | 18684 ft | 383 kts | 284° |
| 2026-05-06 09:00 | 45.62517 | 8.09878 | 19385 ft | 385 kts | 284° |
| 2026-05-06 09:00 | 45.63355 | 8.06271 | 20235 ft | 384 kts | 284° |
| 2026-05-06 09:00 | 45.64186 | 8.02671 | 20994 ft | 388 kts | 283° |
| 2026-05-06 09:01 | 45.65031 | 7.98997 | 21815 ft | 390 kts | 283° |
| 2026-05-06 09:01 | 45.65883 | 7.95292 | 22456 ft | 394 kts | 283° |
| 2026-05-06 09:01 | 45.66742 | 7.91558 | 23151 ft | 396 kts | 283° |
| 2026-05-06 09:01 | 45.67608 | 7.87809 | 23743 ft | 397 kts | 282° |
| 2026-05-06 09:02 | 45.68470 | 7.84034 | 24300 ft | 402 kts | 282° |
| 2026-05-06 09:02 | 45.69343 | 7.80196 | 24679 ft | 411 kts | 282° |
| 2026-05-06 09:02 | 45.70228 | 7.76313 | 25227 ft | 413 kts | 282° |
| 2026-05-06 09:02 | 45.71120 | 7.72401 | 25844 ft | 415 kts | 283° |
| 2026-05-06 09:03 | 45.72024 | 7.68428 | 26142 ft | 425 kts | 282° |
| 2026-05-06 09:03 | 45.72937 | 7.64391 | 26599 ft | 428 kts | 283° |
| 2026-05-06 09:03 | 45.73856 | 7.60339 | 27270 ft | 426 kts | 281° |
| 2026-05-06 09:03 | 45.74771 | 7.56292 | 27877 ft | 427 kts | 281° |
| 2026-05-06 09:04 | 45.75684 | 7.52237 | 28498 ft | 429 kts | 281° |
| 2026-05-06 09:04 | 45.76603 | 7.48152 | 29079 ft | 431 kts | 280° |
| 2026-05-06 09:04 | 45.77521 | 7.44071 | 29643 ft | 432 kts | 280° |
| 2026-05-06 09:04 | 45.78569 | 7.39993 | 30077 ft | 441 kts | 286° |
| 2026-05-06 09:05 | 45.80059 | 7.36087 | 30432 ft | 455 kts | 296° |
| 2026-05-06 09:05 | 45.82090 | 7.32542 | 30820 ft | 469 kts | 307° |
| 2026-05-06 09:05 | 45.84589 | 7.29427 | 31095 ft | 480 kts | 314° |
| 2026-05-06 09:05 | 45.87280 | 7.26528 | 31334 ft | 488 kts | 317° |
| 2026-05-06 09:06 | 45.90037 | 7.23733 | 31530 ft | 496 kts | 318° |
| 2026-05-06 09:06 | 45.92898 | 7.20900 | 31750 ft | 502 kts | 319° |
| 2026-05-06 09:06 | 45.95786 | 7.18041 | 31982 ft | 508 kts | 319° |
| 2026-05-06 09:06 | 45.98717 | 7.15120 | 32168 ft | 513 kts | 319° |
| 2026-05-06 09:07 | 46.01659 | 7.12148 | 32401 ft | 518 kts | 318° |
| 2026-05-06 09:07 | 46.04604 | 7.09146 | 32573 ft | 523 kts | 318° |
| 2026-05-06 09:07 | 46.07583 | 7.06091 | 32745 ft | 526 kts | 318° |
| 2026-05-06 09:07 | 46.10574 | 7.03023 | 32870 ft | 529 kts | 318° |
| 2026-05-06 09:08 | 46.13566 | 6.99944 | 32980 ft | 531 kts | 318° |
| 2026-05-06 09:08 | 46.16562 | 6.96799 | 33088 ft | 530 kts | 316° |
| 2026-05-06 09:08 | 46.19299 | 6.93289 | 33117 ft | 526 kts | 308° |
| 2026-05-06 09:09 | 46.24258 | 6.85553 | 33177 ft | 524 kts | 304° |
| 2026-05-06 09:09 | 46.29022 | 6.77583 | 33336 ft | 523 kts | 304° |
| 2026-05-06 09:10 | 46.33775 | 6.69573 | 33362 ft | 525 kts | 304° |
| 2026-05-06 09:10 | 46.38520 | 6.61612 | 33412 ft | 526 kts | 304° |
| 2026-05-06 09:11 | 46.43319 | 6.53570 | 33422 ft | 527 kts | 304° |
| 2026-05-06 09:11 | 46.48111 | 6.45522 | 33468 ft | 527 kts | 304° |
| 2026-05-06 09:12 | 46.52902 | 6.37453 | 33511 ft | 528 kts | 306° |
| 2026-05-06 09:12 | 46.57695 | 6.29350 | 33531 ft | 528 kts | 306° |
| 2026-05-06 09:13 | 46.62480 | 6.21235 | 33531 ft | 528 kts | 306° |
| 2026-05-06 09:13 | 46.67267 | 6.13095 | 33535 ft | 528 kts | 305° |
| 2026-05-06 09:14 | 46.72039 | 6.04956 | 33622 ft | 526 kts | 306° |
| 2026-05-06 09:14 | 46.76766 | 5.96873 | 33694 ft | 526 kts | 306° |
| 2026-05-06 09:15 | 46.81504 | 5.88741 | 33693 ft | 526 kts | 306° |
| 2026-05-06 09:15 | 46.86240 | 5.80590 | 33716 ft | 525 kts | 306° |
| 2026-05-06 09:16 | 46.90938 | 5.72481 | 33777 ft | 525 kts | 306° |
| 2026-05-06 09:16 | 46.95654 | 5.64318 | 33925 ft | 520 kts | 307° |
| 2026-05-06 09:17 | 47.00303 | 5.56251 | 33933 ft | 520 kts | 307° |
| 2026-05-06 09:17 | 47.04965 | 5.48131 | 33956 ft | 521 kts | 306° |
| 2026-05-06 09:18 | 47.09623 | 5.39993 | 33999 ft | 521 kts | 307° |
| 2026-05-06 09:18 | 47.14249 | 5.31889 | 34093 ft | 520 kts | 307° |
| 2026-05-06 09:19 | 47.18899 | 5.23719 | 34188 ft | 520 kts | 307° |
| 2026-05-06 09:19 | 47.23534 | 5.15555 | 34372 ft | 519 kts | 307° |
| 2026-05-06 09:20 | 47.28153 | 5.07368 | 34430 ft | 519 kts | 307° |
| 2026-05-06 09:20 | 47.32777 | 4.99177 | 34438 ft | 519 kts | 307° |
| 2026-05-06 09:21 | 47.37387 | 4.90983 | 34450 ft | 520 kts | 308° |
| 2026-05-06 09:21 | 47.41977 | 4.82800 | 34443 ft | 520 kts | 308° |
| 2026-05-06 09:22 | 47.46585 | 4.74557 | 34437 ft | 520 kts | 307° |
| 2026-05-06 09:22 | 47.51186 | 4.66299 | 34437 ft | 520 kts | 308° |
| 2026-05-06 09:23 | 47.55780 | 4.58030 | 34447 ft | 521 kts | 308° |
| 2026-05-06 09:23 | 47.60380 | 4.49723 | 34445 ft | 521 kts | 308° |
| 2026-05-06 09:24 | 47.64971 | 4.41410 | 34448 ft | 521 kts | 308° |
| 2026-05-06 09:24 | 47.69567 | 4.33060 | 34449 ft | 521 kts | 307° |
| 2026-05-06 09:25 | 47.74139 | 4.24729 | 34449 ft | 521 kts | 307° |
| 2026-05-06 09:25 | 47.78692 | 4.16406 | 34459 ft | 521 kts | 307° |
| 2026-05-06 09:26 | 47.83262 | 4.08028 | 34459 ft | 521 kts | 307° |
| 2026-05-06 09:26 | 47.87834 | 3.99619 | 34465 ft | 521 kts | 307° |
| 2026-05-06 09:27 | 47.92393 | 3.91208 | 34459 ft | 521 kts | 307° |
| 2026-05-06 09:27 | 47.96937 | 3.82799 | 34484 ft | 520 kts | 307° |
| 2026-05-06 09:28 | 48.01470 | 3.74384 | 34509 ft | 520 kts | 307° |
| 2026-05-06 09:28 | 48.03731 | 3.70179 | 34688 ft | 516 kts | 307° |
| 2026-05-06 09:28 | 48.05960 | 3.66025 | 35062 ft | 510 kts | 307° |
| 2026-05-06 09:28 | 48.08175 | 3.61892 | 35455 ft | 506 kts | 307° |
| 2026-05-06 09:29 | 48.10361 | 3.57807 | 35851 ft | 503 kts | 307° |
| 2026-05-06 09:29 | 48.12540 | 3.53728 | 36258 ft | 499 kts | 307° |
| 2026-05-06 09:29 | 48.14698 | 3.49682 | 36649 ft | 496 kts | 307° |
| 2026-05-06 09:29 | 48.16845 | 3.45650 | 37068 ft | 492 kts | 307° |
| 2026-05-06 09:30 | 48.18938 | 3.41712 | 37515 ft | 489 kts | 307° |
| 2026-05-06 09:30 | 48.21044 | 3.37745 | 37942 ft | 485 kts | 307° |
| 2026-05-06 09:30 | 48.23143 | 3.33786 | 38405 ft | 480 kts | 307° |
| 2026-05-06 09:30 | 48.25205 | 3.29892 | 38766 ft | 475 kts | 307° |
| 2026-05-06 09:31 | 48.27249 | 3.26025 | 39130 ft | 470 kts | 307° |
| 2026-05-06 09:31 | 48.29268 | 3.22202 | 39491 ft | 464 kts | 306° |
| 2026-05-06 09:31 | 48.31264 | 3.18415 | 39785 ft | 461 kts | 306° |
| 2026-05-06 09:32 | 48.35265 | 3.10804 | 39862 ft | 467 kts | 306° |
| 2026-05-06 09:32 | 48.39307 | 3.03077 | 39869 ft | 474 kts | 306° |
| 2026-05-06 09:33 | 48.42536 | 2.94414 | 39874 ft | 477 kts | 289° |
| 2026-05-06 09:33 | 48.44633 | 2.84872 | 39878 ft | 482 kts | 284° |
| 2026-05-06 09:34 | 48.46438 | 2.75151 | 39883 ft | 488 kts | 283° |
| 2026-05-06 09:34 | 48.48260 | 2.65205 | 39884 ft | 494 kts | 284° |
| 2026-05-06 09:35 | 48.50132 | 2.55187 | 39893 ft | 499 kts | 284° |
| 2026-05-06 09:35 | 48.51727 | 2.46724 | 39884 ft | 500 kts | 284° |
| 2026-05-06 09:36 | 48.53624 | 2.36630 | 39905 ft | 500 kts | 284° |
| 2026-05-06 09:36 | 48.55499 | 2.26593 | 39908 ft | 500 kts | 284° |
| 2026-05-06 09:37 | 48.57360 | 2.16507 | 39907 ft | 500 kts | 283° |
| 2026-05-06 09:37 | 48.58872 | 2.06197 | 39913 ft | 501 kts | 279° |
| 2026-05-06 09:38 | 48.60215 | 1.95850 | 39910 ft | 502 kts | 279° |
| 2026-05-06 09:38 | 48.61593 | 1.85519 | 39912 ft | 502 kts | 280° |
| 2026-05-06 09:39 | 48.63009 | 1.75181 | 39911 ft | 502 kts | 280° |
| 2026-05-06 09:39 | 48.64421 | 1.64905 | 39917 ft | 502 kts | 281° |
| 2026-05-06 09:40 | 48.65831 | 1.54578 | 39923 ft | 501 kts | 280° |
| 2026-05-06 09:40 | 48.67904 | 1.39087 | 39923 ft | 501 kts | 280° |
| 2026-05-06 09:41 | 48.69281 | 1.28747 | 39925 ft | 500 kts | 280° |
| 2026-05-06 09:41 | 48.70636 | 1.18483 | 39935 ft | 499 kts | 280° |
| 2026-05-06 09:42 | 48.71987 | 1.08160 | 39940 ft | 500 kts | 280° |
| 2026-05-06 09:42 | 48.73330 | 0.97833 | 39936 ft | 500 kts | 280° |
| 2026-05-06 09:43 | 48.74665 | 0.87502 | 39941 ft | 499 kts | 280° |
| 2026-05-06 09:43 | 48.75999 | 0.77162 | 39935 ft | 499 kts | 280° |
| 2026-05-06 09:44 | 48.77320 | 0.66841 | 39937 ft | 499 kts | 280° |
| 2026-05-06 09:44 | 48.78631 | 0.56509 | 39941 ft | 499 kts | 280° |
| 2026-05-06 09:45 | 48.80076 | 0.46208 | 39944 ft | 500 kts | 283° |
| 2026-05-06 09:45 | 48.81976 | 0.36128 | 39940 ft | 499 kts | 285° |
| 2026-05-06 09:46 | 48.83916 | 0.26023 | 39945 ft | 499 kts | 285° |
| 2026-05-06 09:46 | 48.85775 | 0.15889 | 39949 ft | 498 kts | 284° |
| 2026-05-06 09:47 | 48.87586 | 0.05723 | 39946 ft | 498 kts | 284° |
| 2026-05-06 09:47 | 48.89379 | -0.04443 | 39953 ft | 498 kts | 284° |
| 2026-05-06 09:48 | 48.91170 | -0.14638 | 39964 ft | 497 kts | 284° |
| 2026-05-06 09:48 | 48.92934 | -0.24719 | 39959 ft | 496 kts | 284° |
| 2026-05-06 09:49 | 48.94682 | -0.34879 | 39961 ft | 497 kts | 284° |
| 2026-05-06 09:49 | 48.96387 | -0.45067 | 39965 ft | 497 kts | 283° |
| 2026-05-06 09:50 | 48.98084 | -0.55260 | 39969 ft | 496 kts | 283° |
| 2026-05-06 09:50 | 48.99776 | -0.65437 | 39969 ft | 497 kts | 283° |
| 2026-05-06 09:51 | 49.01467 | -0.75650 | 39971 ft | 496 kts | 283° |
| 2026-05-06 09:51 | 49.03146 | -0.85849 | 39972 ft | 496 kts | 283° |
| 2026-05-06 09:52 | 49.04806 | -0.95996 | 39974 ft | 497 kts | 283° |
| 2026-05-06 09:52 | 49.06468 | -1.06217 | 39975 ft | 496 kts | 283° |
| 2026-05-06 09:53 | 49.08117 | -1.16423 | 39979 ft | 496 kts | 283° |
| 2026-05-06 09:53 | 49.09773 | -1.26668 | 39983 ft | 497 kts | 283° |
| 2026-05-06 09:54 | 49.11431 | -1.36905 | 39973 ft | 496 kts | 283° |
| 2026-05-06 09:54 | 49.13078 | -1.47147 | 39972 ft | 496 kts | 283° |
| 2026-05-06 09:55 | 49.14713 | -1.57383 | 39971 ft | 496 kts | 283° |
| 2026-05-06 09:55 | 49.16339 | -1.67632 | 39985 ft | 496 kts | 283° |
| 2026-05-06 09:56 | 49.16876 | -1.71030 | 39982 ft | 496 kts | 283° |
| 2026-05-06 09:56 | 49.19455 | -1.87459 | 39983 ft | 496 kts | 283° |
| 2026-05-06 09:57 | 49.21043 | -1.97655 | 39996 ft | 496 kts | 283° |
| 2026-05-06 09:57 | 49.22644 | -2.07928 | 39980 ft | 496 kts | 283° |
| 2026-05-06 09:58 | 49.24387 | -2.18139 | 39975 ft | 496 kts | 284° |
| 2026-05-06 09:58 | 49.26173 | -2.28344 | 39982 ft | 496 kts | 284° |
| 2026-05-06 09:59 | 49.27930 | -2.38561 | 39997 ft | 495 kts | 284° |
| 2026-05-06 09:59 | 49.29650 | -2.48727 | 40001 ft | 495 kts | 284° |
| 2026-05-06 10:00 | 49.31367 | -2.58958 | 40000 ft | 495 kts | 284° |
| 2026-05-06 10:00 | 49.33040 | -2.68984 | 39994 ft | 495 kts | 284° |
| 2026-05-06 10:01 | 49.34742 | -2.79241 | 39989 ft | 495 kts | 284° |
| 2026-05-06 10:01 | 49.36429 | -2.89468 | 39979 ft | 495 kts | 284° |
| 2026-05-06 10:02 | 49.38113 | -2.99736 | 39979 ft | 495 kts | 284° |
| 2026-05-06 10:02 | 49.39784 | -3.09987 | 39982 ft | 495 kts | 283° |
| 2026-05-06 10:03 | 49.41435 | -3.20180 | 39987 ft | 495 kts | 283° |
| 2026-05-06 10:03 | 49.43096 | -3.30493 | 39987 ft | 494 kts | 283° |
| 2026-05-06 10:04 | 49.44728 | -3.40693 | 39989 ft | 494 kts | 283° |
| 2026-05-06 10:04 | 49.46361 | -3.50963 | 39981 ft | 494 kts | 283° |
| 2026-05-06 10:05 | 49.47984 | -3.61231 | 39986 ft | 493 kts | 283° |
| 2026-05-06 10:05 | 49.49591 | -3.71465 | 39983 ft | 493 kts | 283° |
| 2026-05-06 10:06 | 49.51193 | -3.81731 | 39988 ft | 491 kts | 283° |
| 2026-05-06 10:06 | 49.52780 | -3.91965 | 39989 ft | 491 kts | 283° |
| 2026-05-06 10:07 | 49.54359 | -4.02217 | 40007 ft | 492 kts | 283° |
| 2026-05-06 10:07 | 49.55921 | -4.12414 | 39992 ft | 492 kts | 283° |
| 2026-05-06 10:08 | 49.57482 | -4.22676 | 39995 ft | 492 kts | 283° |
| 2026-05-06 10:08 | 49.59122 | -4.32933 | 40015 ft | 493 kts | 288° |
| 2026-05-06 10:09 | 49.61309 | -4.42939 | 39998 ft | 493 kts | 289° |
| 2026-05-06 10:09 | 49.63595 | -4.52911 | 39998 ft | 492 kts | 289° |
| 2026-05-06 10:10 | 49.65884 | -4.62869 | 40003 ft | 491 kts | 289° |
| 2026-05-06 10:10 | 49.68150 | -4.72808 | 40003 ft | 491 kts | 289° |
| 2026-05-06 10:11 | 49.70403 | -4.82765 | 40009 ft | 491 kts | 289° |
| 2026-05-06 10:11 | 49.72629 | -4.92660 | 40007 ft | 490 kts | 289° |
| 2026-05-06 10:12 | 49.74862 | -5.02629 | 40009 ft | 491 kts | 289° |
| 2026-05-06 10:12 | 49.77086 | -5.12605 | 40008 ft | 491 kts | 288° |
| 2026-05-06 10:13 | 49.79305 | -5.22607 | 40011 ft | 491 kts | 288° |
| 2026-05-06 10:13 | 49.81516 | -5.32620 | 40008 ft | 490 kts | 288° |
| 2026-05-06 10:14 | 49.83714 | -5.42626 | 40011 ft | 491 kts | 288° |
| 2026-05-06 10:14 | 49.85907 | -5.52655 | 40014 ft | 491 kts | 288° |
| 2026-05-06 10:15 | 49.88069 | -5.62586 | 40014 ft | 490 kts | 288° |
| 2026-05-06 10:15 | 49.90245 | -5.72634 | 40020 ft | 490 kts | 288° |
| 2026-05-06 10:16 | 49.92408 | -5.82673 | 40022 ft | 490 kts | 288° |
| 2026-05-06 10:16 | 49.94566 | -5.92733 | 40019 ft | 491 kts | 288° |
| 2026-05-06 10:17 | 49.96713 | -6.02792 | 40028 ft | 491 kts | 288° |
| 2026-05-06 10:17 | 49.98851 | -6.12863 | 40028 ft | 490 kts | 288° |
| 2026-05-06 10:18 | 50.00966 | -6.22870 | 40035 ft | 491 kts | 288° |
| 2026-05-06 10:18 | 50.03089 | -6.32971 | 40035 ft | 491 kts | 288° |
| 2026-05-06 10:19 | 50.05201 | -6.43065 | 40037 ft | 491 kts | 288° |
| 2026-05-06 10:19 | 50.07306 | -6.53176 | 40039 ft | 491 kts | 288° |
| 2026-05-06 10:20 | 50.09401 | -6.63295 | 40040 ft | 491 kts | 288° |
| 2026-05-06 10:20 | 50.11488 | -6.73422 | 40038 ft | 491 kts | 288° |
| 2026-05-06 10:21 | 50.13567 | -6.83564 | 40043 ft | 491 kts | 287° |
| 2026-05-06 10:21 | 50.15638 | -6.93719 | 40053 ft | 491 kts | 288° |
| 2026-05-06 10:22 | 50.17699 | -7.03881 | 40043 ft | 491 kts | 287° |
| 2026-05-06 10:22 | 50.19752 | -7.14049 | 40042 ft | 491 kts | 287° |
| 2026-05-06 10:23 | 50.21792 | -7.24208 | 40044 ft | 491 kts | 287° |
| 2026-05-06 10:23 | 50.23826 | -7.34389 | 40044 ft | 491 kts | 287° |
| 2026-05-06 10:24 | 50.25837 | -7.44509 | 40043 ft | 490 kts | 287° |
| 2026-05-06 10:24 | 50.27849 | -7.54689 | 40042 ft | 490 kts | 287° |
| 2026-05-06 10:25 | 50.29853 | -7.64879 | 40039 ft | 490 kts | 287° |
| 2026-05-06 10:25 | 50.31863 | -7.75157 | 40038 ft | 490 kts | 287° |
| 2026-05-06 10:26 | 50.33838 | -7.85305 | 40039 ft | 490 kts | 287° |
| 2026-05-06 10:26 | 50.35815 | -7.95520 | 40046 ft | 491 kts | 287° |
| 2026-05-06 10:27 | 50.37766 | -8.05776 | 40037 ft | 491 kts | 286° |
| 2026-05-06 10:27 | 50.39576 | -8.16092 | 40037 ft | 490 kts | 285° |
| 2026-05-06 10:28 | 50.41353 | -8.26417 | 40038 ft | 490 kts | 285° |
| 2026-05-06 10:28 | 50.43139 | -8.36731 | 40031 ft | 490 kts | 285° |
| 2026-05-06 10:29 | 50.44928 | -8.47041 | 40033 ft | 490 kts | 285° |
| 2026-05-06 10:29 | 50.46699 | -8.57293 | 40034 ft | 490 kts | 285° |
| 2026-05-06 10:30 | 50.48472 | -8.67617 | 40032 ft | 490 kts | 285° |
| 2026-05-06 10:30 | 50.50238 | -8.77967 | 40039 ft | 490 kts | 285° |
| 2026-05-06 10:31 | 50.51992 | -8.88311 | 40045 ft | 490 kts | 285° |
| 2026-05-06 10:31 | 50.53738 | -8.98672 | 40044 ft | 491 kts | 285° |
| 2026-05-06 10:32 | 50.55479 | -9.09061 | 40043 ft | 491 kts | 285° |
| 2026-05-06 10:32 | 50.57200 | -9.19393 | 40043 ft | 491 kts | 285° |
| 2026-05-06 10:33 | 50.58924 | -9.29807 | 40040 ft | 491 kts | 285° |
| 2026-05-06 10:33 | 50.60634 | -9.40200 | 40056 ft | 491 kts | 285° |
| 2026-05-06 10:34 | 50.62338 | -9.50619 | 40061 ft | 491 kts | 285° |
| 2026-05-06 10:34 | 50.64030 | -9.61032 | 40044 ft | 491 kts | 285° |
| 2026-05-06 10:35 | 50.65716 | -9.71475 | 40043 ft | 491 kts | 285° |
| 2026-05-06 10:35 | 50.67391 | -9.81909 | 40047 ft | 491 kts | 284° |
| 2026-05-06 10:36 | 50.69058 | -9.92360 | 40051 ft | 491 kts | 284° |
| 2026-05-06 10:36 | 50.70704 | -10.02749 | 40050 ft | 491 kts | 284° |
| 2026-05-06 10:37 | 50.72348 | -10.13191 | 40050 ft | 491 kts | 284° |
| 2026-05-06 10:37 | 50.73985 | -10.23651 | 40053 ft | 491 kts | 284° |
| 2026-05-06 10:38 | 50.75616 | -10.34139 | 40054 ft | 491 kts | 284° |
| 2026-05-06 10:38 | 50.77236 | -10.44628 | 40064 ft | 491 kts | 284° |
| 2026-05-06 10:39 | 50.78577 | -10.53361 | 40047 ft | 492 kts | 284° |
| 2026-05-06 10:39 | 50.80179 | -10.63862 | 40051 ft | 492 kts | 284° |
| 2026-05-06 10:40 | 50.81774 | -10.74377 | 40050 ft | 491 kts | 284° |
| 2026-05-06 10:40 | 50.83361 | -10.84913 | 40063 ft | 492 kts | 284° |
| 2026-05-06 10:41 | 50.84936 | -10.95440 | 40071 ft | 492 kts | 284° |
| 2026-05-06 10:41 | 50.86502 | -11.05982 | 40071 ft | 492 kts | 284° |
| 2026-05-06 10:42 | 50.88055 | -11.16497 | 40070 ft | 492 kts | 284° |
| 2026-05-06 10:42 | 50.89603 | -11.27059 | 40058 ft | 492 kts | 284° |
| 2026-05-06 10:43 | 50.91145 | -11.37645 | 40067 ft | 492 kts | 284° |
| 2026-05-06 10:44 | 50.93436 | -11.53517 | 40070 ft | 493 kts | 283° |
| 2026-05-06 10:44 | 50.94953 | -11.64115 | 40072 ft | 493 kts | 283° |
| 2026-05-06 10:45 | 50.96451 | -11.74651 | 40073 ft | 493 kts | 283° |
| 2026-05-06 10:45 | 50.97948 | -11.85263 | 40075 ft | 493 kts | 283° |
| 2026-05-06 10:46 | 50.99433 | -11.95889 | 40072 ft | 493 kts | 283° |
| 2026-05-06 10:46 | 51.00061 | -12.06725 | 40074 ft | 495 kts | 273° |
| 2026-05-06 10:47 | 51.00186 | -12.17652 | 40078 ft | 495 kts | 272° |
| 2026-05-06 10:47 | 51.00236 | -12.28579 | 40072 ft | 495 kts | 271° |
| 2026-05-06 10:48 | 51.00281 | -12.39534 | 40073 ft | 495 kts | 271° |
| 2026-05-06 10:48 | 51.00328 | -12.50471 | 40076 ft | 496 kts | 271° |
| 2026-05-06 10:49 | 51.00370 | -12.61350 | 40077 ft | 496 kts | 271° |
| 2026-05-06 10:49 | 51.00402 | -12.72298 | 40078 ft | 496 kts | 271° |
| 2026-05-06 10:50 | 51.00423 | -12.83251 | 40082 ft | 496 kts | 271° |
| 2026-05-06 10:50 | 51.00433 | -12.94190 | 40076 ft | 496 kts | 271° |
| 2026-05-06 10:51 | 51.00434 | -13.05170 | 40081 ft | 496 kts | 271° |
| 2026-05-06 10:51 | 51.00424 | -13.16141 | 40081 ft | 496 kts | 271° |
| 2026-05-06 10:52 | 51.00403 | -13.27031 | 40081 ft | 496 kts | 271° |
| 2026-05-06 10:52 | 51.00373 | -13.38073 | 40080 ft | 497 kts | 271° |
| 2026-05-06 10:53 | 51.00332 | -13.48961 | 40088 ft | 497 kts | 271° |
| 2026-05-06 10:53 | 51.00281 | -13.59927 | 40086 ft | 497 kts | 271° |
| 2026-05-06 10:54 | 51.00220 | -13.70902 | 40085 ft | 497 kts | 271° |
| 2026-05-06 10:54 | 51.00148 | -13.81878 | 40068 ft | 497 kts | 271° |
| 2026-05-06 10:55 | 51.00066 | -13.92859 | 40087 ft | 497 kts | 271° |
| 2026-05-06 10:55 | 50.99984 | -14.03842 | 40083 ft | 497 kts | 271° |
| 2026-05-06 10:56 | 51.00016 | -14.14815 | 40089 ft | 497 kts | 272° |
| 2026-05-06 10:56 | 51.00074 | -14.25730 | 40084 ft | 497 kts | 272° |
| 2026-05-06 10:57 | 51.00107 | -14.36706 | 40086 ft | 497 kts | 272° |
| 2026-05-06 10:57 | 51.00116 | -14.47681 | 40086 ft | 497 kts | 271° |
| 2026-05-06 10:58 | 51.00112 | -14.58673 | 40085 ft | 497 kts | 271° |
| 2026-05-06 10:58 | 51.00098 | -14.69645 | 40093 ft | 497 kts | 271° |
| 2026-05-06 10:59 | 51.00075 | -14.80641 | 40085 ft | 497 kts | 271° |
| 2026-05-06 10:59 | 51.00041 | -14.91634 | 40085 ft | 497 kts | 271° |
| 2026-05-06 11:00 | 51.00394 | -15.02524 | 40097 ft | 495 kts | 281° |
| 2026-05-06 11:00 | 51.01586 | -15.13266 | 40091 ft | 494 kts | 282° |
| 2026-05-06 11:01 | 51.02895 | -15.23996 | 40090 ft | 494 kts | 282° |
| 2026-05-06 11:01 | 51.04202 | -15.34713 | 40092 ft | 494 kts | 282° |
| 2026-05-06 11:02 | 51.05489 | -15.45467 | 40088 ft | 495 kts | 282° |
| 2026-05-06 11:02 | 51.06759 | -15.56231 | 40092 ft | 495 kts | 282° |
| 2026-05-06 11:03 | 51.08010 | -15.66934 | 40088 ft | 495 kts | 282° |
| 2026-05-06 11:03 | 51.09255 | -15.77682 | 40090 ft | 495 kts | 282° |
| 2026-05-06 11:04 | 51.10494 | -15.88460 | 40097 ft | 494 kts | 282° |
| 2026-05-06 11:04 | 51.11723 | -15.99236 | 40086 ft | 494 kts | 282° |
| 2026-05-06 11:05 | 51.12940 | -16.10003 | 40089 ft | 494 kts | 282° |
| 2026-05-06 11:05 | 51.14148 | -16.20790 | 40090 ft | 494 kts | 282° |
| 2026-05-06 11:06 | 51.15344 | -16.31561 | 40093 ft | 493 kts | 282° |
| 2026-05-06 11:06 | 51.16528 | -16.42314 | 40094 ft | 492 kts | 282° |
| 2026-05-06 11:07 | 51.17698 | -16.53035 | 40091 ft | 491 kts | 282° |
| 2026-05-06 11:07 | 51.18859 | -16.63774 | 40091 ft | 491 kts | 282° |
| 2026-05-06 11:08 | 51.20004 | -16.74449 | 40094 ft | 491 kts | 282° |
| 2026-05-06 11:08 | 51.21144 | -16.85183 | 40097 ft | 491 kts | 282° |
| 2026-05-06 11:09 | 51.22275 | -16.95935 | 40095 ft | 490 kts | 281° |
| 2026-05-06 11:09 | 51.23396 | -17.06678 | 40092 ft | 490 kts | 281° |
| 2026-05-06 11:10 | 51.24502 | -17.17383 | 40091 ft | 490 kts | 281° |
| 2026-05-06 11:10 | 51.25601 | -17.28127 | 40094 ft | 489 kts | 281° |
| 2026-05-06 11:11 | 51.26680 | -17.38762 | 40093 ft | 489 kts | 281° |
| 2026-05-06 11:11 | 51.27757 | -17.49484 | 40094 ft | 488 kts | 281° |
| 2026-05-06 11:12 | 51.28823 | -17.60200 | 40094 ft | 488 kts | 281° |
| 2026-05-06 11:12 | 51.29878 | -17.70906 | 40091 ft | 488 kts | 281° |
| 2026-05-06 11:13 | 51.30922 | -17.81616 | 40092 ft | 488 kts | 281° |
| 2026-05-06 11:13 | 51.31960 | -17.92355 | 40091 ft | 488 kts | 281° |
| 2026-05-06 11:14 | 51.32979 | -18.03008 | 40091 ft | 487 kts | 280° |
| 2026-05-06 11:14 | 51.33991 | -18.13700 | 40094 ft | 487 kts | 280° |
| 2026-05-06 11:15 | 51.34994 | -18.24396 | 40092 ft | 486 kts | 280° |
| 2026-05-06 11:15 | 51.35989 | -18.35114 | 40091 ft | 486 kts | 280° |
| 2026-05-06 11:16 | 51.36972 | -18.45818 | 40091 ft | 486 kts | 280° |
| 2026-05-06 11:16 | 51.37946 | -18.56533 | 40090 ft | 486 kts | 279° |
| 2026-05-06 11:17 | 51.38908 | -18.67224 | 40087 ft | 486 kts | 279° |
| 2026-05-06 11:17 | 51.39862 | -18.77944 | 40087 ft | 486 kts | 279° |
| 2026-05-06 11:18 | 51.40806 | -18.88666 | 40090 ft | 486 kts | 279° |
| 2026-05-06 11:18 | 51.41738 | -18.99377 | 40094 ft | 486 kts | 279° |
| 2026-05-06 11:19 | 51.42662 | -19.10099 | 40087 ft | 486 kts | 279° |
| 2026-05-06 11:19 | 51.43574 | -19.20789 | 40089 ft | 486 kts | 279° |
| 2026-05-06 11:20 | 51.44479 | -19.31535 | 40093 ft | 486 kts | 278° |
| 2026-05-06 11:20 | 51.45374 | -19.42279 | 40091 ft | 486 kts | 278° |
| 2026-05-06 11:21 | 51.46259 | -19.53023 | 40088 ft | 486 kts | 278° |
| 2026-05-06 11:21 | 51.47135 | -19.63783 | 40088 ft | 486 kts | 278° |
| 2026-05-06 11:22 | 51.47997 | -19.74493 | 40088 ft | 487 kts | 278° |
| 2026-05-06 11:22 | 51.48855 | -19.85277 | 40088 ft | 487 kts | 278° |
| 2026-05-06 11:23 | 51.49704 | -19.96073 | 40086 ft | 487 kts | 278° |
| 2026-05-06 11:23 | 51.50457 | -20.06880 | 40086 ft | 487 kts | 275° |
| 2026-05-06 11:24 | 51.50861 | -20.17680 | 40089 ft | 487 kts | 274° |
| 2026-05-06 11:24 | 51.51219 | -20.28543 | 40088 ft | 487 kts | 274° |
| 2026-05-06 11:25 | 51.51618 | -20.39413 | 40088 ft | 487 kts | 274° |
| 2026-05-06 11:25 | 51.52037 | -20.50269 | 40092 ft | 487 kts | 274° |
| 2026-05-06 11:26 | 51.52383 | -20.59300 | 40093 ft | 487 kts | 274° |
| 2026-05-06 11:26 | 51.52789 | -20.70171 | 40090 ft | 487 kts | 274° |
| 2026-05-06 11:27 | 51.53182 | -20.81045 | 40093 ft | 488 kts | 274° |
| 2026-05-06 11:27 | 51.53565 | -20.91919 | 40092 ft | 487 kts | 274° |
| 2026-05-06 11:28 | 51.53938 | -21.02800 | 40094 ft | 487 kts | 274° |
| 2026-05-06 11:28 | 51.54300 | -21.13671 | 40091 ft | 487 kts | 274° |
| 2026-05-06 11:29 | 51.54653 | -21.24560 | 40094 ft | 488 kts | 273° |
| 2026-05-06 11:29 | 51.54996 | -21.35435 | 40097 ft | 488 kts | 273° |
| 2026-05-06 11:30 | 51.55329 | -21.46340 | 40092 ft | 488 kts | 273° |
| 2026-05-06 11:30 | 51.55650 | -21.57163 | 40094 ft | 488 kts | 273° |
| 2026-05-06 11:31 | 51.55963 | -21.68070 | 40093 ft | 488 kts | 273° |
| 2026-05-06 11:31 | 51.56266 | -21.78969 | 40097 ft | 488 kts | 272° |
| 2026-05-06 11:32 | 51.56556 | -21.89788 | 40095 ft | 488 kts | 272° |
| 2026-05-06 11:32 | 51.56839 | -22.00684 | 40094 ft | 488 kts | 272° |
| 2026-05-06 11:33 | 51.57111 | -22.11568 | 40097 ft | 488 kts | 272° |
| 2026-05-06 11:33 | 51.57373 | -22.22466 | 40092 ft | 487 kts | 272° |
| 2026-05-06 11:34 | 51.57625 | -22.33359 | 40100 ft | 487 kts | 271° |
| 2026-05-06 11:34 | 51.57866 | -22.44178 | 40095 ft | 487 kts | 271° |
| 2026-05-06 11:35 | 51.58098 | -22.55087 | 40097 ft | 487 kts | 271° |
| 2026-05-06 11:35 | 51.58319 | -22.65965 | 40097 ft | 487 kts | 271° |
| 2026-05-06 11:36 | 51.58532 | -22.76894 | 40097 ft | 487 kts | 271° |
| 2026-05-06 11:36 | 51.58733 | -22.87789 | 40094 ft | 487 kts | 271° |
| 2026-05-06 11:37 | 51.58925 | -22.98687 | 40094 ft | 487 kts | 271° |
| 2026-05-06 11:37 | 51.59106 | -23.09588 | 40094 ft | 487 kts | 271° |
| 2026-05-06 11:38 | 51.59277 | -23.20473 | 40095 ft | 487 kts | 271° |
| 2026-05-06 11:38 | 51.59438 | -23.31363 | 40093 ft | 487 kts | 271° |
| 2026-05-06 11:39 | 51.59589 | -23.42207 | 40093 ft | 487 kts | 270° |
| 2026-05-06 11:39 | 51.59730 | -23.53101 | 40091 ft | 487 kts | 270° |
| 2026-05-06 11:40 | 51.59861 | -23.64013 | 40091 ft | 488 kts | 270° |
| 2026-05-06 11:40 | 51.59982 | -23.74920 | 40091 ft | 488 kts | 270° |
| 2026-05-06 11:41 | 51.60093 | -23.85848 | 40089 ft | 488 kts | 270° |
| 2026-05-06 11:41 | 51.60194 | -23.96756 | 40091 ft | 488 kts | 270° |
| 2026-05-06 11:42 | 51.60284 | -24.07611 | 40091 ft | 488 kts | 270° |
| 2026-05-06 11:42 | 51.60364 | -24.18521 | 40092 ft | 488 kts | 270° |
| 2026-05-06 11:43 | 51.60435 | -24.29450 | 40083 ft | 488 kts | 270° |
| 2026-05-06 11:43 | 51.60495 | -24.40357 | 40087 ft | 488 kts | 270° |
| 2026-05-06 11:44 | 51.60566 | -24.56654 | 40079 ft | 488 kts | 270° |
| 2026-05-06 11:44 | 51.60602 | -24.67570 | 40080 ft | 488 kts | 269° |
| 2026-05-06 11:45 | 51.60626 | -24.78480 | 40080 ft | 488 kts | 269° |
| 2026-05-06 11:45 | 51.60641 | -24.89417 | 40081 ft | 488 kts | 269° |
| 2026-05-06 11:46 | 51.60646 | -25.00349 | 40079 ft | 489 kts | 269° |
| 2026-05-06 11:46 | 51.60640 | -25.11278 | 40076 ft | 488 kts | 269° |
| 2026-05-06 11:47 | 51.60624 | -25.22216 | 40072 ft | 488 kts | 269° |
| 2026-05-06 11:47 | 51.60599 | -25.33072 | 40072 ft | 488 kts | 269° |
| 2026-05-06 11:48 | 51.60563 | -25.43997 | 40072 ft | 489 kts | 269° |
| 2026-05-06 11:48 | 51.60517 | -25.54948 | 40073 ft | 489 kts | 269° |
| 2026-05-06 11:49 | 51.60461 | -25.65874 | 40067 ft | 489 kts | 269° |
| 2026-05-06 11:49 | 51.60395 | -25.76809 | 40064 ft | 489 kts | 269° |
| 2026-05-06 11:50 | 51.60318 | -25.87723 | 40064 ft | 489 kts | 269° |
| 2026-05-06 11:50 | 51.60231 | -25.98692 | 40058 ft | 489 kts | 269° |
| 2026-05-06 11:51 | 51.60135 | -26.09631 | 40058 ft | 489 kts | 268° |
| 2026-05-06 11:51 | 51.60028 | -26.20518 | 40053 ft | 489 kts | 268° |
| 2026-05-06 11:52 | 51.59911 | -26.31458 | 40051 ft | 489 kts | 268° |
| 2026-05-06 11:52 | 51.59784 | -26.42399 | 40048 ft | 489 kts | 268° |
| 2026-05-06 11:53 | 51.59646 | -26.53341 | 40050 ft | 490 kts | 268° |
| 2026-05-06 11:53 | 51.59498 | -26.64296 | 40042 ft | 490 kts | 268° |
| 2026-05-06 11:54 | 51.59340 | -26.75275 | 40045 ft | 490 kts | 268° |
| 2026-05-06 11:54 | 51.59171 | -26.86248 | 40039 ft | 490 kts | 268° |
| 2026-05-06 11:55 | 51.58993 | -26.97150 | 40050 ft | 490 kts | 268° |
| 2026-05-06 11:55 | 51.58804 | -27.08110 | 40034 ft | 491 kts | 268° |
| 2026-05-06 11:56 | 51.58605 | -27.19111 | 40031 ft | 492 kts | 268° |
| 2026-05-06 11:56 | 51.58395 | -27.30106 | 40029 ft | 492 kts | 268° |
| 2026-05-06 11:57 | 51.58175 | -27.41098 | 40029 ft | 492 kts | 268° |
| 2026-05-06 11:57 | 51.57945 | -27.52076 | 40021 ft | 492 kts | 268° |
| 2026-05-06 11:58 | 51.57704 | -27.63066 | 40020 ft | 492 kts | 267° |
| 2026-05-06 11:58 | 51.57454 | -27.74020 | 40021 ft | 492 kts | 267° |
| 2026-05-06 11:59 | 51.57192 | -27.85015 | 40021 ft | 492 kts | 267° |
| 2026-05-06 11:59 | 51.56519 | -28.11564 | 40014 ft | 492 kts | 267° |
| 2026-05-06 12:00 | 51.55670 | -28.42002 | 40007 ft | 493 kts | 267° |
| 2026-05-06 12:00 | 51.55346 | -28.52999 | 40005 ft | 493 kts | 266° |
| 2026-05-06 12:01 | 51.55013 | -28.63931 | 40000 ft | 493 kts | 266° |
| 2026-05-06 12:01 | 51.54667 | -28.74958 | 39996 ft | 494 kts | 266° |
| 2026-05-06 12:02 | 51.54310 | -28.85973 | 39996 ft | 494 kts | 266° |
| 2026-05-06 12:02 | 51.53943 | -28.96983 | 39993 ft | 494 kts | 266° |
| 2026-05-06 12:03 | 51.53565 | -29.08007 | 39993 ft | 494 kts | 266° |
| 2026-05-06 12:03 | 51.53178 | -29.19019 | 39993 ft | 494 kts | 266° |
| 2026-05-06 12:04 | 51.52779 | -29.30030 | 39992 ft | 494 kts | 266° |
| 2026-05-06 12:04 | 51.52373 | -29.40983 | 39994 ft | 495 kts | 266° |
| 2026-05-06 12:05 | 51.51953 | -29.52043 | 39993 ft | 495 kts | 266° |
| 2026-05-06 12:05 | 51.51522 | -29.63089 | 39994 ft | 495 kts | 266° |
| 2026-05-06 12:06 | 51.51082 | -29.74098 | 39991 ft | 494 kts | 266° |
| 2026-05-06 12:06 | 51.50635 | -29.85049 | 39998 ft | 493 kts | 266° |
| 2026-05-06 12:07 | 51.50180 | -29.95930 | 39999 ft | 492 kts | 266° |
| 2026-05-06 12:07 | 51.49795 | -30.06942 | 40004 ft | 493 kts | 268° |
| 2026-05-06 12:08 | 51.49754 | -30.17916 | 40003 ft | 492 kts | 270° |
| 2026-05-06 12:08 | 51.49740 | -30.28898 | 40013 ft | 492 kts | 269° |
| 2026-05-06 12:09 | 51.49662 | -30.39867 | 40010 ft | 490 kts | 269° |
| 2026-05-06 12:09 | 51.49543 | -30.50819 | 40016 ft | 491 kts | 269° |
| 2026-05-06 12:10 | 51.49410 | -30.61768 | 40016 ft | 490 kts | 269° |
| 2026-05-06 12:10 | 51.49267 | -30.72718 | 40022 ft | 491 kts | 269° |
| 2026-05-06 12:11 | 51.49117 | -30.83632 | 40024 ft | 489 kts | 268° |
| 2026-05-06 12:11 | 51.48958 | -30.94507 | 40034 ft | 490 kts | 268° |
| 2026-05-06 12:12 | 51.48788 | -31.05436 | 40030 ft | 490 kts | 268° |
| 2026-05-06 12:12 | 51.48607 | -31.16393 | 40039 ft | 490 kts | 268° |
| 2026-05-06 12:13 | 51.48415 | -31.27345 | 40041 ft | 490 kts | 268° |
| 2026-05-06 12:13 | 51.48215 | -31.38216 | 40046 ft | 490 kts | 268° |
| 2026-05-06 12:14 | 51.48003 | -31.49181 | 40049 ft | 492 kts | 268° |
| 2026-05-06 12:14 | 51.47819 | -31.58300 | 40053 ft | 491 kts | 268° |
| 2026-05-06 12:15 | 51.47589 | -31.69266 | 40057 ft | 492 kts | 268° |
| 2026-05-06 12:15 | 51.47348 | -31.80232 | 40056 ft | 491 kts | 268° |
| 2026-05-06 12:16 | 51.47097 | -31.91187 | 40060 ft | 492 kts | 268° |
| 2026-05-06 12:16 | 51.46835 | -32.02159 | 40067 ft | 492 kts | 268° |
| 2026-05-06 12:17 | 51.46565 | -32.13080 | 40067 ft | 493 kts | 268° |
| 2026-05-06 12:17 | 51.46284 | -32.24029 | 40071 ft | 493 kts | 268° |
| 2026-05-06 12:18 | 51.45991 | -32.35027 | 40073 ft | 492 kts | 268° |
| 2026-05-06 12:18 | 51.45688 | -32.46002 | 40076 ft | 493 kts | 268° |
| 2026-05-06 12:19 | 51.45374 | -32.56995 | 40076 ft | 493 kts | 267° |
| 2026-05-06 12:19 | 51.45050 | -32.67997 | 40083 ft | 494 kts | 267° |
| 2026-05-06 12:20 | 51.44716 | -32.78977 | 40083 ft | 493 kts | 267° |
| 2026-05-06 12:20 | 51.44372 | -32.89972 | 40087 ft | 493 kts | 267° |
| 2026-05-06 12:21 | 51.44017 | -33.00962 | 40089 ft | 494 kts | 267° |
| 2026-05-06 12:21 | 51.43655 | -33.11870 | 40091 ft | 494 kts | 267° |
| 2026-05-06 12:22 | 51.43280 | -33.22856 | 40095 ft | 494 kts | 267° |
| 2026-05-06 12:22 | 51.42893 | -33.33880 | 40097 ft | 494 kts | 267° |
| 2026-05-06 12:23 | 51.42497 | -33.44882 | 40096 ft | 495 kts | 267° |
| 2026-05-06 12:23 | 51.42089 | -33.55897 | 40102 ft | 495 kts | 267° |
| 2026-05-06 12:24 | 51.41672 | -33.66898 | 40102 ft | 495 kts | 267° |
| 2026-05-06 12:24 | 51.41247 | -33.77837 | 40102 ft | 495 kts | 267° |
| 2026-05-06 12:25 | 51.40809 | -33.88845 | 40102 ft | 495 kts | 267° |
| 2026-05-06 12:25 | 51.40360 | -33.99854 | 40108 ft | 495 kts | 266° |
| 2026-05-06 12:26 | 51.39902 | -34.10843 | 40107 ft | 494 kts | 267° |
| 2026-05-06 12:26 | 51.39434 | -34.21813 | 40111 ft | 493 kts | 266° |
| 2026-05-06 12:27 | 51.38957 | -34.32769 | 40113 ft | 493 kts | 266° |
| 2026-05-06 12:27 | 51.38468 | -34.43748 | 40113 ft | 494 kts | 266° |
| 2026-05-06 12:28 | 51.37973 | -34.54645 | 40116 ft | 494 kts | 266° |
| 2026-05-06 12:28 | 51.37464 | -34.65607 | 40115 ft | 493 kts | 266° |
| 2026-05-06 12:29 | 51.36947 | -34.76529 | 40116 ft | 492 kts | 266° |
| 2026-05-06 12:29 | 51.36419 | -34.87457 | 40116 ft | 492 kts | 266° |
| 2026-05-06 12:30 | 51.35881 | -34.98401 | 40118 ft | 492 kts | 266° |
| 2026-05-06 12:30 | 51.35333 | -35.09325 | 40118 ft | 492 kts | 266° |
| 2026-05-06 12:31 | 51.34779 | -35.20152 | 40115 ft | 492 kts | 266° |
| 2026-05-06 12:31 | 51.34209 | -35.31112 | 40116 ft | 491 kts | 266° |
| 2026-05-06 12:32 | 51.33635 | -35.41935 | 40119 ft | 491 kts | 266° |
| 2026-05-06 12:32 | 51.33048 | -35.52826 | 40118 ft | 491 kts | 266° |
| 2026-05-06 12:33 | 51.32447 | -35.63781 | 40116 ft | 491 kts | 266° |
| 2026-05-06 12:33 | 51.31844 | -35.74585 | 40118 ft | 490 kts | 266° |
| 2026-05-06 12:34 | 51.31229 | -35.85427 | 40118 ft | 490 kts | 266° |
| 2026-05-06 12:34 | 51.30602 | -35.96293 | 40118 ft | 490 kts | 266° |